Time;durP1;ratioP1;P1;durP2;ratioP2;P2;SDS_P1;SDS_P2;PMS_P1;PMS_P2;Temp;Humidity;BMP_temperature;BMP_pressure;BME280_temperature;BME280_humidity;BME280_pressure;Samples;Min_cycle;Max_cycle;Signal;HPM_P1;HPM_P2
2022/10/10 04:05:27;;;;;;;4.20;3.00;;;10.70;99.90;;;;;;5125638;22;20597;-66
2022/10/10 04:07:53;;;;;;;5.50;3.97;;;10.70;99.90;;;;;;4977244;28;20195;-66
2022/10/10 04:10:18;;;;;;;4.20;3.70;;;10.60;99.90;;;;;;4992846;28;20188;-65
2022/10/10 04:12:44;;;;;;;3.53;3.23;;;10.60;99.90;;;;;;4986928;28;20185;-65
2022/10/10 04:15:10;;;;;;;4.30;3.50;;;10.60;99.90;;;;;;4977778;28;20211;-65
2022/10/10 04:17:35;;;;;;;5.43;3.80;;;10.60;99.90;;;;;;4991933;28;20172;-65
2022/10/10 04:20:01;;;;;;;5.90;3.30;;;10.60;99.90;;;;;;4994772;28;20172;-65
2022/10/10 04:22:26;;;;;;;6.37;4.90;;;10.60;99.90;;;;;;4975956;28;20215;-65
2022/10/10 04:24:52;;;;;;;4.03;3.63;;;10.50;99.90;;;;;;4982365;28;20534;-65
2022/10/10 04:27:17;;;;;;;4.20;3.50;;;10.50;99.90;;;;;;4993480;28;20201;-65
2022/10/10 04:29:43;;;;;;;4.43;3.90;;;10.50;99.90;;;;;;4990382;28;20191;-65
2022/10/10 04:32:08;;;;;;;3.67;3.33;;;10.50;99.90;;;;;;4974867;28;20238;-65
2022/10/10 04:34:34;;;;;;;3.90;3.60;;;10.50;99.90;;;;;;4973956;28;20351;-65
2022/10/10 04:37:00;;;;;;;5.60;4.40;;;10.50;99.90;;;;;;4974320;28;20177;-65
2022/10/10 04:39:25;;;;;;;4.03;3.63;;;10.50;99.90;;;;;;4975086;28;20180;-65
2022/10/10 04:41:51;;;;;;;4.13;3.63;;;10.50;99.90;;;;;;4993849;28;20210;-65
2022/10/10 04:44:18;;;;;;;8.20;4.53;;;10.50;99.90;;;;;;4993553;28;20462;-66
2022/10/10 04:46:43;;;;;;;5.15;3.78;;;10.50;99.90;;;;;;4993931;28;20572;-66
2022/10/10 04:49:09;;;;;;;3.53;3.23;;;10.50;99.90;;;;;;4984745;28;20172;-65
2022/10/10 04:51:35;;;;;;;3.53;3.23;;;10.50;99.90;;;;;;4974756;28;20638;-66
2022/10/10 04:54:00;;;;;;;4.43;4.03;;;10.60;99.90;;;;;;4992032;28;20766;-66
2022/10/10 04:56:26;;;;;;;4.77;3.67;;;10.60;99.90;;;;;;4974836;28;20259;-65
2022/10/10 04:58:52;;;;;;;5.07;3.97;;;10.70;99.90;;;;;;4974286;28;20203;-65
2022/10/10 05:01:18;;;;;;;6.30;4.47;;;10.70;99.90;;;;;;4977531;28;20857;-65
2022/10/10 05:03:43;;;;;;;4.53;3.87;;;10.70;99.90;;;;;;4982475;28;20268;-65
2022/10/10 05:06:09;;;;;;;6.57;3.80;;;10.70;99.90;;;;;;4979427;28;20223;-66
2022/10/10 05:08:35;;;;;;;4.20;3.80;;;10.60;99.90;;;;;;4974430;28;20168;-65
2022/10/10 05:11:00;;;;;;;4.00;3.70;;;10.60;99.90;;;;;;4978354;28;20180;-66
2022/10/10 05:13:26;;;;;;;4.50;3.67;;;10.60;99.90;;;;;;4993370;28;20601;-66
2022/10/10 05:15:52;;;;;;;4.40;4.00;;;10.60;99.90;;;;;;4993672;28;20212;-66
2022/10/10 05:18:19;;;;;;;4.83;3.70;;;10.60;99.90;;;;;;4993912;28;20256;-65
2022/10/10 05:20:46;;;;;;;6.10;4.38;;;10.60;99.90;;;;;;4993622;28;20643;-65
2022/10/10 05:23:16;;;;;;;5.18;3.50;;;10.60;99.90;;;;;;4993858;28;20653;-65
2022/10/10 05:25:47;;;;;;;4.70;4.30;;;10.60;99.90;;;;;;4993552;28;20202;-65
2022/10/10 05:28:13;;;;;;;3.92;3.65;;;10.60;99.90;;;;;;4976429;28;20196;-66
2022/10/10 05:30:38;;;;;;;4.87;4.27;;;10.50;99.90;;;;;;4994711;28;20172;-66
2022/10/10 05:33:04;;;;;;;3.40;3.20;;;10.50;99.90;;;;;;4994112;28;20757;-66
2022/10/10 05:35:30;;;;;;;5.10;4.60;;;10.50;99.90;;;;;;4997842;28;20216;-65
2022/10/10 05:37:55;;;;;;;6.00;4.53;;;10.50;99.90;;;;;;5004058;28;20174;-65
2022/10/10 05:40:21;;;;;;;4.70;4.17;;;10.40;99.90;;;;;;5002992;28;20423;-65
2022/10/10 05:42:47;;;;;;;4.50;3.77;;;10.40;99.90;;;;;;5003481;28;20203;-65
2022/10/10 05:45:12;;;;;;;3.90;3.53;;;10.30;99.90;;;;;;5006409;28;20476;-66
2022/10/10 05:47:38;;;;;;;3.97;3.60;;;10.30;99.90;;;;;;5002985;28;20616;-65
2022/10/10 05:50:04;;;;;;;4.87;3.93;;;10.30;99.90;;;;;;4978753;28;20180;-65
2022/10/10 05:52:30;;;;;;;5.75;4.03;;;10.30;99.90;;;;;;4988691;28;20186;-65
2022/10/10 05:54:55;;;;;;;5.77;5.17;;;10.30;99.90;;;;;;4997060;28;20196;-65
2022/10/10 05:57:21;;;;;;;4.80;4.40;;;10.30;99.90;;;;;;4997548;28;20182;-65
2022/10/10 05:59:47;;;;;;;5.30;4.67;;;10.30;99.90;;;;;;4997404;28;20209;-65
2022/10/10 06:02:12;;;;;;;5.47;4.60;;;10.30;99.90;;;;;;4997165;28;20199;-65
2022/10/10 06:04:38;;;;;;;4.63;3.63;;;10.30;99.90;;;;;;4996430;28;20651;-65
2022/10/10 06:07:04;;;;;;;5.90;4.00;;;10.40;99.90;;;;;;4989207;28;20435;-65
2022/10/10 06:09:30;;;;;;;6.83;4.70;;;10.40;99.90;;;;;;4988143;28;20527;-66
2022/10/10 06:11:55;;;;;;;5.93;4.00;;;10.50;99.90;;;;;;4996276;28;20189;-65
2022/10/10 06:14:21;;;;;;;4.90;4.20;;;10.60;99.90;;;;;;4996511;28;20403;-65
2022/10/10 06:16:46;;;;;;;5.23;4.77;;;10.70;99.90;;;;;;4997222;28;20653;-65
2022/10/10 06:19:12;;;;;;;4.67;4.20;;;10.80;99.90;;;;;;4996669;28;20179;-65
2022/10/10 06:21:38;;;;;;;5.03;3.90;;;10.80;99.90;;;;;;4990457;28;20200;-66
2022/10/10 06:24:04;;;;;;;4.57;3.87;;;10.90;99.90;;;;;;4976375;28;20221;-65
2022/10/10 06:26:29;;;;;;;4.47;4.07;;;11.10;99.90;;;;;;4977153;28;20950;-66
2022/10/10 06:28:55;;;;;;;5.33;4.83;;;11.20;99.90;;;;;;4976907;28;20872;-65
2022/10/10 06:31:20;;;;;;;6.80;4.67;;;11.30;99.90;;;;;;4976615;28;20205;-65
2022/10/10 06:33:47;;;;;;;4.37;3.97;;;11.40;99.90;;;;;;4976208;28;20251;-64
2022/10/10 06:36:14;;;;;;;5.43;4.80;;;11.60;99.90;;;;;;4981033;28;20348;-64
2022/10/10 06:38:43;;;;;;;10.93;4.20;;;11.60;99.90;;;;;;4996029;28;20524;-65
2022/10/10 06:41:09;;;;;;;11.00;5.23;;;11.80;99.90;;;;;;4995866;28;20477;-66
2022/10/10 06:43:35;;;;;;;4.60;4.20;;;11.90;99.90;;;;;;4995336;28;20444;-66
2022/10/10 06:46:01;;;;;;;5.43;4.20;;;11.90;99.90;;;;;;4995945;28;20506;-66
2022/10/10 06:48:28;;;;;;;4.20;3.60;;;12.00;99.90;;;;;;4996149;28;20194;-65
2022/10/10 06:50:59;;;;;;;8.90;4.40;;;12.10;99.90;;;;;;4976843;28;20466;-65
2022/10/10 06:53:26;;;;;;;3.60;3.27;;;12.20;99.90;;;;;;4995675;28;20436;-65
2022/10/10 06:55:53;;;;;;;4.70;4.20;;;12.30;99.90;;;;;;4995985;28;20889;-66
2022/10/10 06:58:19;;;;;;;6.90;4.50;;;12.50;99.90;;;;;;4996449;28;20564;-66
2022/10/10 07:00:52;;;;;;;4.10;3.80;;;12.60;99.90;;;;;;4996019;28;20411;-65
2022/10/10 07:03:19;;;;;;;4.07;3.37;;;12.70;99.90;;;;;;4995519;28;20759;-66
2022/10/10 07:05:54;;;;;;;11.40;4.93;;;12.80;99.90;;;;;;4990564;28;20520;-68
2022/10/10 07:08:20;;;;;;;7.17;4.70;;;12.80;99.90;;;;;;4976265;28;20429;-67
2022/10/10 07:10:46;;;;;;;5.60;4.50;;;12.90;99.90;;;;;;4976292;28;20402;-72
2022/10/10 07:13:13;;;;;;;5.80;4.20;;;13.20;99.90;;;;;;4975872;28;20263;-72
2022/10/10 07:15:38;;;;;;;7.73;3.87;;;13.70;99.90;;;;;;4959072;28;20455;-68
2022/10/10 07:18:05;;;;;;;4.70;4.30;;;14.40;99.90;;;;;;4976398;28;20894;-66
2022/10/10 07:20:31;;;;;;;5.33;3.80;;;14.80;99.90;;;;;;4976251;28;20180;-65
2022/10/10 07:22:56;;;;;;;4.40;4.00;;;15.00;99.90;;;;;;4975894;28;20467;-65
2022/10/10 07:25:22;;;;;;;5.50;4.90;;;15.10;99.90;;;;;;4976148;28;20194;-65
2022/10/10 07:27:48;;;;;;;5.77;3.40;;;15.00;99.90;;;;;;4994153;28;20176;-65
2022/10/10 07:30:14;;;;;;;4.27;3.97;;;15.00;99.90;;;;;;4995169;28;20260;-65
2022/10/10 07:32:40;;;;;;;6.47;4.10;;;15.30;99.90;;;;;;4994974;28;20416;-66
2022/10/10 07:35:06;;;;;;;5.77;4.50;;;15.90;99.90;;;;;;4995123;28;20437;-65
2022/10/10 07:37:32;;;;;;;4.50;4.10;;;16.60;99.90;;;;;;4995403;28;20234;-65
2022/10/10 07:39:57;;;;;;;5.00;4.30;;;17.30;99.90;;;;;;4995134;28;20968;-65
2022/10/10 07:42:23;;;;;;;3.97;3.30;;;17.50;99.90;;;;;;4977407;28;20214;-67
2022/10/10 07:44:48;;;;;;;5.53;4.03;;;17.30;99.90;;;;;;4975458;28;20192;-66
2022/10/10 07:47:14;;;;;;;4.30;3.90;;;17.10;99.90;;;;;;4975584;28;20176;-64
2022/10/10 07:49:40;;;;;;;4.60;4.07;;;16.90;99.90;;;;;;4975817;28;20169;-65
2022/10/10 07:52:05;;;;;;;4.23;3.50;;;16.80;99.90;;;;;;4975766;28;20180;-65
2022/10/10 07:54:31;;;;;;;4.80;4.23;;;16.70;99.90;;;;;;4976916;28;20183;-65
2022/10/10 07:56:57;;;;;;;3.57;3.27;;;16.60;99.90;;;;;;4977391;28;20183;-65
2022/10/10 07:59:23;;;;;;;4.13;3.77;;;16.40;99.90;;;;;;4975416;28;20422;-65
2022/10/10 08:01:49;;;;;;;5.70;3.40;;;16.30;99.90;;;;;;4974528;28;20459;-64
2022/10/10 08:04:15;;;;;;;4.17;3.77;;;16.20;99.90;;;;;;4975659;28;20185;-65
2022/10/10 08:06:41;;;;;;;4.70;4.20;;;16.20;99.90;;;;;;4994504;28;20439;-65
2022/10/10 08:09:06;;;;;;;5.73;4.30;;;16.20;99.90;;;;;;4994604;28;20186;-64
2022/10/10 08:11:32;;;;;;;4.07;3.77;;;16.20;99.90;;;;;;4977224;28;20177;-64
2022/10/10 08:13:59;;;;;;;4.33;3.73;;;16.30;99.90;;;;;;4994239;28;20231;-64
2022/10/10 08:16:24;;;;;;;5.10;4.10;;;16.40;99.90;;;;;;4987120;28;20478;-68
2022/10/10 08:18:50;;;;;;;6.40;4.07;;;16.50;99.90;;;;;;4975209;28;20185;-67
2022/10/10 08:21:17;;;;;;;3.40;3.13;;;16.60;99.90;;;;;;4975050;28;20299;-66
2022/10/10 08:23:43;;;;;;;3.93;3.50;;;16.60;99.90;;;;;;4974729;28;20418;-66
2022/10/10 08:26:11;;;;;;;3.70;3.40;;;16.70;99.90;;;;;;4975156;28;20447;-66
2022/10/10 08:28:37;;;;;;;5.17;3.63;;;16.90;99.90;;;;;;4975025;28;20485;-66
2022/10/10 08:31:11;;;;;;;5.67;3.60;;;17.10;99.90;;;;;;4980643;28;20519;-66
2022/10/10 08:33:38;;;;;;;4.30;3.50;;;17.10;99.90;;;;;;4994299;28;20456;-66
2022/10/10 08:36:10;;;;;;;3.93;3.60;;;17.30;99.90;;;;;;4976764;28;20446;-66
2022/10/10 08:38:36;;;;;;;5.57;3.53;;;17.50;99.90;;;;;;4994409;28;20758;-65
2022/10/10 08:41:20;;;;;;;3.70;3.37;;;17.60;99.90;;;;;;4994013;28;20407;-65
2022/10/10 08:44:05;;;;;;;3.50;3.20;;;17.80;99.90;;;;;;4993688;28;20947;-66
2022/10/10 08:46:39;;;;;;;3.30;3.00;;;18.20;99.90;;;;;;4982084;28;20444;-65
2022/10/10 08:49:33;;;;;;;4.40;4.00;;;18.80;99.90;;;;;;4974829;28;20411;-66
2022/10/10 08:52:27;;;;;;;3.23;3.03;;;19.70;99.90;;;;;;4974856;28;20417;-66
2022/10/10 08:54:54;;;;;;;6.27;3.10;;;20.10;99.90;;;;;;4974553;28;20514;-68
2022/10/10 08:57:26;;;;;;;4.00;3.60;;;20.50;99.90;;;;;;4957139;28;20443;-67
2022/10/10 08:59:55;;;;;;;3.60;3.30;;;20.60;99.90;;;;;;4975007;28;20416;-67
2022/10/10 09:02:33;;;;;;;3.40;3.10;;;20.70;99.90;;;;;;4974341;28;20463;-66
2022/10/10 09:04:59;;;;;;;2.60;2.40;;;20.80;99.90;;;;;;4974357;28;20972;-67
2022/10/10 09:08:01;;;;;;;4.03;3.73;;;21.00;99.90;;;;;;4974260;28;20443;-67
2022/10/10 09:10:45;;;;;;;5.37;3.10;;;21.80;99.90;;;;;;4974736;28;20535;-67
2022/10/10 09:13:22;;;;;;;5.40;4.10;;;22.30;99.90;;;;;;4975316;28;20391;-66
2022/10/10 09:15:58;;;;;;;4.73;3.63;;;22.70;99.80;;;;;;4987955;28;20416;-68
2022/10/10 09:18:38;;;;;;;5.20;4.23;;;23.10;98.60;;;;;;4980311;28;20920;-66
2022/10/10 09:21:17;;;;;;;3.97;3.63;;;23.20;98.00;;;;;;4997727;28;20420;-66
2022/10/10 09:23:50;;;;;;;3.33;3.07;;;23.00;98.20;;;;;;4997611;28;20379;-66
2022/10/10 09:26:20;;;;;;;5.53;3.50;;;22.80;98.30;;;;;;4997778;28;20433;-66
2022/10/10 09:28:58;;;;;;;3.10;2.90;;;22.60;98.60;;;;;;4997688;28;20419;-66
2022/10/10 09:31:35;;;;;;;4.77;2.90;;;22.30;98.90;;;;;;4980540;28;20474;-67
2022/10/10 09:34:15;;;;;;;2.60;2.40;;;22.20;99.40;;;;;;4987989;28;20459;-65
2022/10/10 09:36:43;;;;;;;3.50;2.70;;;22.20;99.60;;;;;;4997438;28;20417;-66
2022/10/10 09:39:16;;;;;;;2.80;2.60;;;22.20;99.50;;;;;;4997610;28;20415;-66
2022/10/10 09:42:05;;;;;;;3.17;2.17;;;22.10;99.50;;;;;;4997363;28;20458;-65
2022/10/10 09:44:31;;;;;;;3.00;2.70;;;22.10;99.70;;;;;;4976973;28;20434;-66
2022/10/10 09:46:59;;;;;;;3.63;2.57;;;22.10;99.60;;;;;;4975718;28;20507;-66
2022/10/10 09:49:24;;;;;;;3.43;2.80;;;22.00;99.50;;;;;;4975865;28;20446;-67
2022/10/10 09:51:50;;;;;;;3.00;2.80;;;21.90;99.70;;;;;;4978409;28;20934;-67
2022/10/10 09:54:18;;;;;;;4.83;2.47;;;22.00;99.90;;;;;;4994898;28;20845;-67
2022/10/10 09:56:52;;;;;;;3.10;2.80;;;22.50;99.90;;;;;;4995211;28;20182;-67
2022/10/10 09:59:40;;;;;;;3.13;2.83;;;23.10;99.10;;;;;;4997275;28;20764;-67
2022/10/10 10:02:19;;;;;;;3.57;3.27;;;23.60;98.40;;;;;;4997095;28;20468;-67
2022/10/10 10:04:47;;;;;;;3.47;2.77;;;24.20;98.00;;;;;;4996519;28;20422;-68
2022/10/10 10:07:27;;;;;;;4.90;3.60;;;24.80;97.00;;;;;;4987843;28;20439;-67
2022/10/10 10:09:55;;;;;;;3.00;2.80;;;25.20;95.50;;;;;;4977573;28;20447;-67
2022/10/10 10:12:27;;;;;;;2.37;2.20;;;25.20;95.50;;;;;;4977616;28;20390;-67
2022/10/10 10:15:05;;;;;;;3.60;2.73;;;25.00;94.70;;;;;;4976845;28;20446;-68
2022/10/10 10:17:31;;;;;;;2.00;1.90;;;24.60;95.30;;;;;;4977269;28;20441;-67
2022/10/10 10:19:57;;;;;;;3.10;2.80;;;24.40;95.60;;;;;;4977174;28;20390;-68
2022/10/10 10:22:38;;;;;;;4.10;3.50;;;24.30;96.00;;;;;;4977394;28;20463;-68
2022/10/10 10:25:34;;;;;;;2.30;2.20;;;24.20;96.60;;;;;;4994450;28;20207;-68
2022/10/10 10:28:15;;;;;;;2.83;2.63;;;24.10;96.60;;;;;;4996226;28;20442;-68
2022/10/10 10:30:43;;;;;;;2.07;1.90;;;24.20;96.20;;;;;;4996514;28;20394;-66
2022/10/10 10:33:46;;;;;;;2.60;2.40;;;24.30;96.60;;;;;;4996046;28;20886;-67
2022/10/10 10:36:29;;;;;;;2.67;2.47;;;24.50;96.10;;;;;;4991558;28;20764;-68
2022/10/10 10:39:10;;;;;;;2.50;2.30;;;24.60;96.30;;;;;;4977094;28;20510;-67
2022/10/10 10:42:01;;;;;;;3.10;2.90;;;24.60;96.60;;;;;;4976993;28;20426;-68
2022/10/10 10:45:08;;;;;;;2.23;2.03;;;25.00;95.70;;;;;;4976223;28;20821;-67
2022/10/10 10:48:09;;;;;;;2.33;2.17;;;25.10;95.40;;;;;;4976627;28;20416;-68
2022/10/10 10:50:47;;;;;;;2.30;1.90;;;25.10;95.40;;;;;;4975249;28;20462;-68
2022/10/10 10:53:35;;;;;;;1.70;1.60;;;25.10;95.60;;;;;;4996221;28;20393;-68
2022/10/10 10:56:31;;;;;;;3.77;2.60;;;24.90;95.10;;;;;;4957597;28;20944;-67
2022/10/10 10:59:18;;;;;;;2.27;2.00;;;24.70;95.20;;;;;;4978601;28;20927;-67
2022/10/10 11:02:09;;;;;;;2.40;2.20;;;24.50;95.40;;;;;;4995835;28;20949;-68
2022/10/10 11:04:38;;;;;;;2.27;2.07;;;24.40;95.70;;;;;;4995289;28;20467;-67
2022/10/10 11:07:18;;;;;;;2.33;2.10;;;24.20;96.00;;;;;;4979707;28;20419;-68
2022/10/10 11:10:00;;;;;;;1.97;1.87;;;24.00;95.90;;;;;;4976372;28;20492;-67
2022/10/10 11:12:38;;;;;;;2.30;1.93;;;23.80;96.40;;;;;;4976287;28;20490;-69
2022/10/10 11:15:21;;;;;;;2.43;1.37;;;23.60;96.40;;;;;;4976060;28;21004;-70
2022/10/10 11:18:08;;;;;;;2.90;2.20;;;23.40;97.20;;;;;;4976472;28;20404;-70
2022/10/10 11:20:48;;;;;;;2.00;1.90;;;23.30;97.60;;;;;;4980771;28;20422;-67
2022/10/10 11:23:17;;;;;;;3.17;2.80;;;23.40;97.50;;;;;;4995050;28;20437;-68
2022/10/10 11:26:03;;;;;;;5.40;4.20;;;23.40;97.70;;;;;;4995346;28;20480;-68
2022/10/10 11:28:32;;;;;;;4.83;4.17;;;23.40;97.90;;;;;;4995454;28;20480;-68
2022/10/10 11:31:04;;;;;;;3.30;3.00;;;23.30;97.20;;;;;;4991252;28;20419;-68
2022/10/10 11:33:34;;;;;;;2.90;2.50;;;23.20;97.20;;;;;;4975525;28;20408;-68
2022/10/10 11:36:09;;;;;;;4.63;3.40;;;23.10;97.80;;;;;;4975631;28;20551;-68
2022/10/10 11:38:44;;;;;;;3.20;2.10;;;23.00;98.50;;;;;;4975850;28;20505;-68
2022/10/10 11:41:16;;;;;;;2.00;1.80;;;22.80;98.40;;;;;;4975926;28;20414;-68
2022/10/10 11:43:55;;;;;;;2.57;2.10;;;22.80;98.50;;;;;;4975499;28;20413;-68
2022/10/10 11:46:42;;;;;;;4.13;2.00;;;22.60;98.40;;;;;;4984466;28;20520;-66
2022/10/10 11:49:11;;;;;;;2.63;2.30;;;22.50;97.70;;;;;;4994607;28;20935;-65
2022/10/10 11:52:23;;;;;;;1.90;1.80;;;22.40;98.50;;;;;;4995140;28;20414;-67
2022/10/10 11:54:57;;;;;;;3.07;2.80;;;22.40;98.90;;;;;;4994885;28;20433;-69
2022/10/10 11:58:22;;;;;;;3.27;2.33;;;22.30;98.80;;;;;;4994714;28;20410;-69
2022/10/10 12:00:53;;;;;;;3.10;2.73;;;22.30;98.40;;;;;;4915535;29;20801;-67
2022/10/10 12:03:19;;;;;;;4.87;3.73;;;22.30;98.60;;;;;;4993153;28;20552;-70
2022/10/10 12:05:54;;;;;;;2.47;2.27;;;22.20;98.50;;;;;;4994583;28;20858;-70
2022/10/10 12:08:24;;;;;;;4.13;2.50;;;22.30;98.60;;;;;;4994749;28;20179;-67
2022/10/10 12:11:04;;;;;;;2.63;2.13;;;22.30;98.60;;;;;;4994517;28;20466;-68
2022/10/10 12:13:45;;;;;;;1.80;1.70;;;22.40;98.30;;;;;;4994293;28;20410;-67
2022/10/10 12:16:18;;;;;;;6.63;2.83;;;22.30;98.20;;;;;;4982265;28;20436;-68
2022/10/10 12:18:45;;;;;;;4.40;2.67;;;22.20;98.10;;;;;;4975097;28;20409;-69
2022/10/10 12:21:17;;;;;;;3.97;2.70;;;22.30;98.20;;;;;;4975332;28;20423;-68
2022/10/10 12:23:48;;;;;;;3.10;2.00;;;22.30;98.00;;;;;;4974563;28;20765;-67
2022/10/10 12:26:19;;;;;;;6.43;2.43;;;22.20;98.30;;;;;;4975051;28;20523;-65
2022/10/10 12:29:00;;;;;;;2.10;2.00;;;22.20;98.10;;;;;;4974920;28;20406;-68
2022/10/10 12:31:30;;;;;;;2.03;1.93;;;22.20;98.10;;;;;;4991032;28;20816;-68
2022/10/10 12:34:14;;;;;;;3.10;2.80;;;22.10;98.40;;;;;;4993095;28;20439;-67
2022/10/10 12:36:41;;;;;;;2.67;2.23;;;22.20;98.60;;;;;;4994422;28;20421;-67
2022/10/10 12:39:09;;;;;;;3.87;2.70;;;22.20;98.60;;;;;;4994330;28;20420;-69
2022/10/10 12:41:38;;;;;;;3.70;2.30;;;22.20;98.40;;;;;;4993859;28;20458;-67
2022/10/10 12:44:03;;;;;;;2.23;2.10;;;22.20;98.90;;;;;;4993686;28;20412;-67
2022/10/10 12:46:30;;;;;;;6.07;2.83;;;22.20;98.50;;;;;;4994052;28;20533;-68
2022/10/10 12:48:58;;;;;;;2.27;2.17;;;22.20;98.80;;;;;;4982444;28;20248;-70
2022/10/10 12:51:25;;;;;;;2.97;2.17;;;22.20;98.20;;;;;;4974910;28;20502;-67
2022/10/10 12:53:54;;;;;;;2.67;2.47;;;22.10;98.20;;;;;;4974371;28;20435;-68
2022/10/10 12:56:42;;;;;;;3.80;2.13;;;22.10;98.30;;;;;;4973825;28;20438;-68
2022/10/10 12:59:24;;;;;;;4.50;1.73;;;22.00;98.40;;;;;;4974824;28;20430;-67
2022/10/10 13:01:55;;;;;;;3.87;2.53;;;21.90;99.00;;;;;;4974179;28;20471;-68
2022/10/10 13:04:23;;;;;;;4.93;2.63;;;21.90;98.50;;;;;;4989028;28;20421;-67
2022/10/10 13:06:54;;;;;;;2.57;2.17;;;21.80;99.00;;;;;;4993783;28;20424;-68
2022/10/10 13:09:22;;;;;;;3.00;2.80;;;21.60;98.80;;;;;;4994093;28;20464;-67
2022/10/10 13:11:56;;;;;;;1.87;1.77;;;21.60;98.90;;;;;;4993949;28;20415;-68
2022/10/10 13:14:23;;;;;;;2.83;2.63;;;21.50;99.10;;;;;;4975983;28;20773;-68
2022/10/10 13:16:48;;;;;;;3.33;2.60;;;21.50;99.00;;;;;;4993871;28;20421;-68
2022/10/10 13:19:23;;;;;;;6.70;3.20;;;21.60;99.00;;;;;;4959035;28;20424;-68
2022/10/10 13:21:51;;;;;;;6.27;2.93;;;21.60;99.00;;;;;;4974508;28;20195;-68
2022/10/10 13:24:22;;;;;;;2.40;2.20;;;21.70;98.70;;;;;;4974066;28;20498;-68
2022/10/10 13:26:49;;;;;;;5.60;2.30;;;21.70;98.30;;;;;;4974481;28;20419;-68
2022/10/10 13:29:34;;;;;;;2.53;2.10;;;21.70;98.30;;;;;;4974168;28;20418;-68
2022/10/10 13:32:06;;;;;;;9.50;2.13;;;21.60;98.30;;;;;;4975304;28;20912;-67
2022/10/10 13:34:35;;;;;;;2.57;2.27;;;21.60;98.30;;;;;;4993338;28;20438;-67
2022/10/10 13:37:03;;;;;;;2.33;2.13;;;21.50;98.30;;;;;;4993599;28;20443;-68
2022/10/10 13:39:31;;;;;;;2.80;2.57;;;21.40;98.40;;;;;;4993794;28;20426;-67
2022/10/10 13:41:57;;;;;;;4.83;2.47;;;21.30;98.80;;;;;;4993683;28;20497;-67
2022/10/10 13:44:51;;;;;;;1.97;1.83;;;21.20;98.90;;;;;;4993194;28;20403;-67
2022/10/10 13:47:38;;;;;;;4.87;2.17;;;21.20;99.10;;;;;;4970969;28;20852;-68
2022/10/10 13:50:23;;;;;;;4.73;2.10;;;21.20;99.10;;;;;;4974160;28;20446;-68
2022/10/10 13:52:48;;;;;;;5.27;2.50;;;21.30;98.70;;;;;;4973783;28;20434;-67
2022/10/10 13:55:24;;;;;;;5.30;2.30;;;21.30;98.60;;;;;;4974075;28;20455;-68
2022/10/10 13:57:51;;;;;;;3.80;2.00;;;21.40;98.60;;;;;;4974391;28;20243;-68
2022/10/10 14:00:20;;;;;;;2.43;2.23;;;21.50;98.60;;;;;;4975636;28;20419;-68
2022/10/10 14:02:46;;;;;;;3.10;2.37;;;21.60;98.40;;;;;;4977101;28;20458;-68
2022/10/10 14:05:28;;;;;;;2.60;2.10;;;21.70;98.30;;;;;;4977673;28;20411;-68
2022/10/10 14:07:55;;;;;;;2.63;2.17;;;21.70;97.80;;;;;;4977470;28;20495;-67
2022/10/10 14:10:24;;;;;;;2.60;2.40;;;21.80;98.10;;;;;;4987039;28;20430;-67
2022/10/10 14:12:58;;;;;;;6.03;2.10;;;21.80;98.00;;;;;;4989694;28;20907;-67
2022/10/10 14:15:41;;;;;;;5.00;2.13;;;21.90;97.60;;;;;;4996297;28;20426;-67
2022/10/10 14:18:22;;;;;;;4.90;2.70;;;21.90;97.10;;;;;;4996665;28;20398;-66
2022/10/10 14:20:49;;;;;;;2.00;1.80;;;21.90;97.20;;;;;;4996698;28;20429;-68
2022/10/10 14:23:15;;;;;;;5.17;2.10;;;21.90;96.50;;;;;;4996143;28;20462;-68
2022/10/10 14:25:43;;;;;;;5.80;2.50;;;21.80;96.60;;;;;;4996598;28;20431;-68
2022/10/10 14:28:16;;;;;;;6.37;2.20;;;21.90;96.50;;;;;;4977908;28;20507;-68
2022/10/10 14:30:42;;;;;;;2.57;2.37;;;21.80;96.40;;;;;;4977147;28;20415;-68
2022/10/10 14:33:12;;;;;;;2.90;2.60;;;21.80;96.90;;;;;;4976795;28;20413;-68
2022/10/10 14:35:38;;;;;;;3.23;2.23;;;21.80;97.00;;;;;;4977076;28;20203;-68
2022/10/10 14:38:04;;;;;;;2.23;2.00;;;21.80;97.10;;;;;;4977037;28;20767;-69
2022/10/10 14:40:32;;;;;;;3.10;1.97;;;21.70;96.90;;;;;;4976868;28;20439;-68
2022/10/10 14:42:57;;;;;;;2.50;2.17;;;21.70;96.80;;;;;;4976684;28;20261;-67
2022/10/10 14:45:23;;;;;;;3.47;2.30;;;21.60;96.70;;;;;;4976929;28;20437;-68
2022/10/10 14:47:50;;;;;;;2.57;2.13;;;21.60;96.90;;;;;;4976542;28;20165;-68
2022/10/10 14:50:23;;;;;;;3.23;2.20;;;21.50;97.10;;;;;;4959473;28;20666;-68
2022/10/10 14:52:49;;;;;;;2.40;2.17;;;21.50;97.10;;;;;;4976154;28;20831;-68
2022/10/10 14:55:15;;;;;;;5.77;2.23;;;21.40;97.10;;;;;;4976352;28;20522;-68
2022/10/10 14:57:41;;;;;;;2.17;1.80;;;21.40;97.40;;;;;;4976776;28;20417;-68
2022/10/10 15:00:13;;;;;;;2.40;2.20;;;21.30;97.50;;;;;;4976565;28;20416;-68
2022/10/10 15:02:38;;;;;;;2.90;2.17;;;21.30;97.40;;;;;;4976261;28;20228;-67
2022/10/10 15:05:04;;;;;;;4.30;2.63;;;21.20;97.60;;;;;;4976165;28;20474;-68
2022/10/10 15:07:30;;;;;;;3.70;2.50;;;21.20;97.60;;;;;;4976314;28;20192;-68
2022/10/10 15:09:55;;;;;;;3.47;1.87;;;21.10;97.30;;;;;;4976994;28;20528;-68
2022/10/10 15:12:21;;;;;;;2.50;2.30;;;21.10;97.50;;;;;;4976171;28;20268;-68
2022/10/10 15:14:47;;;;;;;3.63;2.13;;;21.00;97.60;;;;;;4975832;28;20207;-68
2022/10/10 15:17:12;;;;;;;3.67;2.37;;;21.00;97.80;;;;;;4976451;28;20180;-67
2022/10/10 15:19:38;;;;;;;3.80;2.40;;;21.00;98.00;;;;;;4976339;28;20184;-68
2022/10/10 15:22:03;;;;;;;2.57;2.33;;;20.90;98.10;;;;;;4976562;28;20200;-67
2022/10/10 15:24:29;;;;;;;9.43;2.80;;;20.90;98.20;;;;;;4975757;28;20176;-68
2022/10/10 15:26:54;;;;;;;6.63;2.77;;;20.90;97.90;;;;;;4992392;28;20175;-67
2022/10/10 15:29:20;;;;;;;5.20;2.10;;;20.90;97.30;;;;;;4995522;28;20176;-67
2022/10/10 15:31:46;;;;;;;7.63;2.90;;;20.90;97.20;;;;;;4985114;28;20725;-67
2022/10/10 15:34:11;;;;;;;13.90;2.30;;;20.80;97.30;;;;;;4975390;28;20270;-68
2022/10/10 15:36:39;;;;;;;2.70;2.07;;;20.80;97.90;;;;;;4975649;28;20195;-68
2022/10/10 15:39:05;;;;;;;4.33;2.00;;;20.80;98.20;;;;;;4975639;28;20702;-69
2022/10/10 15:41:31;;;;;;;3.30;2.80;;;20.80;98.50;;;;;;4975696;28;20554;-68
2022/10/10 15:43:56;;;;;;;4.33;2.40;;;20.80;98.40;;;;;;4975100;28;20443;-67
2022/10/10 15:46:24;;;;;;;4.07;2.63;;;20.80;98.30;;;;;;4984043;28;20202;-67
2022/10/10 15:48:50;;;;;;;2.10;1.93;;;20.80;98.30;;;;;;4994521;28;20184;-67
2022/10/10 15:51:16;;;;;;;6.63;2.90;;;20.80;98.30;;;;;;4994654;28;20406;-67
2022/10/10 15:53:42;;;;;;;2.20;2.10;;;20.80;98.40;;;;;;4994404;28;20176;-67
2022/10/10 15:56:10;;;;;;;2.73;2.50;;;20.70;98.50;;;;;;4994787;28;20437;-67
2022/10/10 15:58:37;;;;;;;2.27;2.07;;;20.70;98.50;;;;;;4994282;28;20232;-67
2022/10/10 16:01:18;;;;;;;1.87;1.77;;;20.70;98.60;;;;;;4986235;28;20424;-67
2022/10/10 16:03:44;;;;;;;5.97;2.63;;;20.60;98.50;;;;;;4974982;28;20424;-67
2022/10/10 16:06:10;;;;;;;4.10;2.97;;;20.70;98.60;;;;;;4975606;28;20455;-67
2022/10/10 16:08:37;;;;;;;4.77;2.60;;;20.60;98.80;;;;;;4994901;28;20414;-66
2022/10/10 16:11:12;;;;;;;3.90;2.53;;;20.60;99.10;;;;;;4994753;28;20393;-66
2022/10/10 16:13:39;;;;;;;3.50;2.57;;;20.50;99.30;;;;;;4994094;28;20538;-68
2022/10/10 16:16:07;;;;;;;4.97;1.70;;;20.50;99.50;;;;;;4994440;28;20441;-68
2022/10/10 16:18:35;;;;;;;3.30;2.43;;;20.50;99.60;;;;;;4979140;28;20443;-68
2022/10/10 16:21:04;;;;;;;4.00;2.90;;;20.40;99.70;;;;;;4975031;28;20499;-67
2022/10/10 16:23:29;;;;;;;8.10;4.93;;;20.30;99.90;;;;;;4973843;28;20494;-67
2022/10/10 16:26:02;;;;;;;3.23;2.93;;;20.20;99.90;;;;;;4975374;28;20858;-68
2022/10/10 16:28:27;;;;;;;4.63;3.00;;;20.20;99.90;;;;;;4957781;28;20197;-67
2022/10/10 16:30:53;;;;;;;3.80;2.63;;;20.10;99.90;;;;;;4974794;28;20494;-67
2022/10/10 16:33:19;;;;;;;11.00;2.40;;;20.00;99.90;;;;;;4974550;28;20183;-67
2022/10/10 16:35:44;;;;;;;2.70;2.50;;;19.90;99.90;;;;;;4974550;28;20324;-67
2022/10/10 16:38:10;;;;;;;6.83;3.50;;;19.80;99.90;;;;;;4974854;28;20629;-67
2022/10/10 16:40:35;;;;;;;4.40;2.70;;;19.70;99.90;;;;;;4977426;28;20180;-67
2022/10/10 16:43:02;;;;;;;3.47;2.90;;;19.60;99.90;;;;;;4993902;28;20195;-69
2022/10/10 16:45:27;;;;;;;3.90;2.33;;;19.50;99.90;;;;;;4976549;28;20345;-68
2022/10/10 16:47:53;;;;;;;3.80;3.23;;;19.50;99.90;;;;;;4994010;28;20504;-69
2022/10/10 16:50:18;;;;;;;3.00;2.70;;;19.50;99.90;;;;;;4994468;28;20549;-68
2022/10/10 16:52:44;;;;;;;3.60;3.30;;;19.40;99.90;;;;;;4993547;28;20258;-69
2022/10/10 16:55:11;;;;;;;5.40;3.00;;;19.30;99.90;;;;;;4992621;28;20687;-68
2022/10/10 16:57:37;;;;;;;4.23;2.93;;;19.30;99.90;;;;;;4974576;28;20826;-68
2022/10/10 17:00:04;;;;;;;3.10;2.33;;;19.20;99.90;;;;;;4974534;28;20909;-68
2022/10/10 17:02:30;;;;;;;6.00;3.40;;;19.10;99.90;;;;;;4974274;28;20470;-68
2022/10/10 17:04:56;;;;;;;5.13;3.40;;;19.00;99.90;;;;;;4974373;28;20786;-68
2022/10/10 17:07:22;;;;;;;9.97;3.93;;;18.90;99.90;;;;;;4974210;28;20191;-68